FQQL

Quelimane Airport

Quelimane, Mozambique
METAR FQQL 151200Z 09011KT 070V130 5000S FU NSC 30/15 Q1019
Observed Flight Rules
Aug-15 @ 12:00 UTC (40 minutes ago) Marginal Visual Flight Rules
Wind Visibility Clouds Conditions
90° at 11 knots 5,005 meters
  • Clear skies
  • Smoke
Temperatures Readings
Current 30°C / 86°F
Dewpoint 15°C / 59°F
Humidity 40%
Altimeter 30.09" Hg
Pressure 1019 hPa
Elevation 16
METAR FQQL 151200Z 09011KT 070V130 5000S FU NSC 30/15 Q1019
Observed Flight Rules
Aug-15 @ 12:00 UTC
(40 minutes ago)
MVFR
Wind Visibility
90° at 11 knots 5,005 meters
Clouds
  • Clear skies
Conditions
  • Smoke
Temperature Dewpoint
30°C / 86°F 15°C / 59°F
Humidity Altimeter Pressure
40% 30.09" Hg 1019 hPa